Thunder radar more information blitzortung!


Löydät sääaseman tiedot myös:

European Weather Network

Finland Weather Exchange

Weather Underground

AWEKAS



Weather Underground säähistoriasivu

Päivittäin yhteenveto Kesäkuu 18, 2017 Yksiköt:  Metriset    Englantilaiset   Molemmat
« Edellinen Päivä
Seuraava Päivä »
Päivittäin Viikoittain Kuukausittain Vuosittain Mukautettu
  Korkea: Matala: Keskiarvo:
Lämpötila: -17.8 °C -10.7 °C -8.8 °C
Kastepiste: -17.8 °C -13.1 °C -11.3 °C
Kosteus: Humidity % 52 % 76 %
Tuulen nopeus: 0 km/h 0 km/h 4.7 km/h
Tuulenpuuska: 0 km/h - -
Tuuli:- - WSW
Ilmanpaine: 0 hPa 34049.6 hPa -
Sade: 83.82 mm    
Historical Graphs
 
 
Taulukkotiedot Kesäkuu 18, 2017
Aika Lämpötila Kastepiste Ilmanpaine Tuuli Tuulen nopeus Tuulenpuuska Kosteus Sademäärä (tunneittain)
-17.8 °C -17.8 °C 0 hPa Calm     Humidity % 0 mm
00:00 -9.4 °C -11.1 °C 34212.1 hPa SW 2.6 km/h 12.9 km/h 83 % 0 mm
00:15 -9.7 °C -11.2 °C 34198.6 hPa SW 5.1 km/h 15.6 km/h 84 % 0 mm
00:30 -9.9 °C -11.3 °C 34198.6 hPa SSW 5.1 km/h 18.2 km/h 85 % 0 mm
00:45 -10.1 °C -11.3 °C 34198.6 hPa SW 5.1 km/h 18.2 km/h 86 % 0 mm
01:00 -10.2 °C -11.4 °C 34198.6 hPa SSW 5.1 km/h 15.6 km/h 87 % 0 mm
01:15 -10.3 °C -11.4 °C 34188.4 hPa SSW 5.1 km/h 15.6 km/h 88 % 0 mm
01:30 -10.4 °C -11.4 °C 34188.4 hPa SSW 7.7 km/h 20.8 km/h 89 % 0 mm
01:45 -10.5 °C -11.4 °C 34188.4 hPa SW 5.1 km/h 18.2 km/h 90 % 0 mm
02:00 -10.5 °C -11.4 °C 34188.4 hPa SSW 2.6 km/h 12.9 km/h 90 % 0 mm
02:15 -10.4 °C -11.3 °C 34188.4 hPa SW 2.6 km/h 10.3 km/h 90 % 0 mm
02:30 -10.5 °C -11.4 °C 34188.4 hPa SW 2.6 km/h 12.9 km/h 90 % 0 mm
02:45 -10.5 °C -11.3 °C 34188.4 hPa SW 2.6 km/h 12.9 km/h 91 % 0 mm
03:00 -10.5 °C -11.3 °C 34188.4 hPa SSW 2.6 km/h 15.6 km/h 91 % 0 mm
03:15 -10.5 °C -11.2 °C 34188.4 hPa SW 5.1 km/h 12.9 km/h 92 % 0 mm
03:30 -10.5 °C -11.2 °C 34188.4 hPa SW 5.1 km/h 10.3 km/h 92 % 0 mm
03:45 -10.5 °C -11.2 °C 34178.3 hPa SW 2.6 km/h 18.2 km/h 92 % 0 mm
04:00 -10.6 °C -11.3 °C 34178.3 hPa SW 2.6 km/h 15.6 km/h 92 % 0 mm
04:15 -10.6 °C -11.3 °C 34178.3 hPa SSW 2.6 km/h 7.7 km/h 92 % 0 mm
04:30 -10.6 °C -11.3 °C 34178.3 hPa Calm   10.3 km/h 92 % 0 mm
04:45 -10.6 °C -11.2 °C 34164.7 hPa Calm   7.7 km/h 93 % 7.62 mm
05:00 -10.6 °C -11.2 °C 34154.6 hPa Calm   5.1 km/h 93 % 7.62 mm
05:15 -10.7 °C -11.2 °C 34144.4 hPa Calm   10.3 km/h 94 % 7.62 mm
05:30 -10.6 °C -11.1 °C 34144.4 hPa SW 2.6 km/h 10.3 km/h 95 % 7.62 mm
05:45 -10.6 °C -11 °C 34144.4 hPa Calm   12.9 km/h 95 % 0 mm
06:00 -10.5 °C -10.9 °C 34144.4 hPa South 2.6 km/h 10.3 km/h 95 % 0 mm
06:15 -10.4 °C -10.9 °C 34130.9 hPa Calm   2.6 km/h 95 % 0 mm
06:30 -10.4 °C -10.8 °C 34130.9 hPa Calm     95 % 0 mm
06:45 -10.3 °C -10.8 °C 34120.7 hPa Calm   2.6 km/h 95 % 0 mm
07:00 -10.2 °C -10.7 °C 34120.7 hPa Calm   10.3 km/h 95 % 0 mm
07:15 -10.2 °C -10.7 °C 34107.2 hPa SSW 2.6 km/h 7.7 km/h 94 % 0 mm
07:30 -10.1 °C -10.6 °C 34107.2 hPa SSW 5.1 km/h 12.9 km/h 94 % 0 mm
07:45 -9.9 °C -10.5 °C 34107.2 hPa Calm   12.9 km/h 94 % 0 mm
08:00 -9.8 °C -10.4 °C 34097 hPa Calm   7.7 km/h 94 % 0 mm
08:15 -9.8 °C -10.3 °C 34097 hPa Calm   5.1 km/h 94 % 12.7 mm
08:30 -9.9 °C -10.4 °C 34097 hPa Calm   5.1 km/h 94 % 38.1 mm
08:45 -9.9 °C -10.3 °C 34097 hPa Calm   2.6 km/h 95 % 50.8 mm
09:00 -9.9 °C -10.4 °C 34097 hPa Calm     95 % 58.42 mm
09:15 -9.9 °C -10.3 °C 34097 hPa Calm     96 % 58.42 mm
09:30 -9.9 °C -10.3 °C 34086.9 hPa Calm   5.1 km/h 96 % 38.1 mm
09:45 -9.8 °C -10.2 °C 34086.9 hPa Calm     96 % 25.4 mm
10:00 -10 °C -10.4 °C 34097 hPa WNW 2.6 km/h 10.3 km/h 95 % 20.32 mm
10:15 -10.3 °C -10.7 °C 34086.9 hPa Calm   5.1 km/h 95 % 12.7 mm
10:30 -10.3 °C -10.7 °C 34097 hPa Calm   2.6 km/h 96 % 7.62 mm
10:45 -10.3 °C -10.6 °C 34086.9 hPa Calm   2.6 km/h 96 % 7.62 mm
11:00 -10 °C -10.3 °C 34086.9 hPa Calm     96 % 0 mm
11:15 -9.7 °C -10.3 °C 34073.3 hPa Calm     93 % 0 mm
11:30 -9.6 °C -10.3 °C 34073.3 hPa WNW 2.6 km/h 10.3 km/h 91 % 0 mm
11:45 -9.2 °C -10 °C 34073.3 hPa West 2.6 km/h 10.3 km/h 91 % 0 mm
12:00 -8.8 °C -9.7 °C 34073.3 hPa SSW 5.1 km/h 10.3 km/h 91 % 0 mm
12:15 -8.6 °C -9.7 °C 34073.3 hPa South 2.6 km/h 12.9 km/h 88 % 0 mm
12:30 -8.3 °C -9.6 °C 34073.3 hPa SSW 2.6 km/h 10.3 km/h 87 % 0 mm
12:45 -7.8 °C -9.1 °C 34063.2 hPa Calm   15.6 km/h 87 % 0 mm
13:00 -7.5 °C -9.7 °C 34063.2 hPa NW 5.1 km/h 28.5 km/h 78 % 0 mm
13:15 -7.1 °C -10.2 °C 34063.2 hPa WNW 7.7 km/h 25.9 km/h 70 % 0 mm
13:30 -7.1 °C -10.4 °C 34063.2 hPa WNW 7.7 km/h 23.3 km/h 68 % 0 mm
13:45 -7.1 °C -10.2 °C 34063.2 hPa NW 10.3 km/h 28.5 km/h 70 % 0 mm
14:00 -6.9 °C -10.9 °C 34049.6 hPa West 7.7 km/h 20.8 km/h 63 % 0 mm
14:15 -6.7 °C -11.3 °C 34063.2 hPa WNW 10.3 km/h 31.1 km/h 59 % 0 mm
14:30 -6.3 °C -11.1 °C 34063.2 hPa WSW 10.3 km/h 36.2 km/h 58 % 0 mm
14:45 -6.1 °C -11.4 °C 34063.2 hPa NW 7.7 km/h 25.9 km/h 54 % 0 mm
15:00 -6.6 °C -11.6 °C 34063.2 hPa NW 12.9 km/h 33.6 km/h 56 % 0 mm
15:15 -6.6 °C -11.8 °C 34063.2 hPa WNW 10.3 km/h 33.6 km/h 55 % 0 mm
15:30 -6.8 °C -11.9 °C 34063.2 hPa NW 12.9 km/h 36.2 km/h 55 % 0 mm
15:45 -6.6 °C -11.4 °C 34049.6 hPa WNW 7.7 km/h 23.3 km/h 57 % 0 mm
16:00 -6.5 °C -11.7 °C 34063.2 hPa NW 12.9 km/h 36.2 km/h 55 % 0 mm
16:15 -6.6 °C -12.1 °C 34063.2 hPa WNW 12.9 km/h 36.2 km/h 53 % 0 mm
16:30 -6.4 °C -11.8 °C 34063.2 hPa WNW 15.6 km/h 36.2 km/h 54 % 0 mm
16:45 -6.3 °C -11.9 °C 34063.2 hPa NW 10.3 km/h 28.5 km/h 52 % 0 mm
17:00 -6.7 °C -11.8 °C 34073.3 hPa NW 15.6 km/h 36.2 km/h 56 % 0 mm
17:15 -6.9 °C -11.2 °C 34073.3 hPa WNW 12.9 km/h 31.1 km/h 61 % 0 mm
17:30 -7.2 °C -11.3 °C 34073.3 hPa WNW 10.3 km/h 31.1 km/h 62 % 0 mm
17:45 -7 °C -11.2 °C 34073.3 hPa WSW 7.7 km/h 25.9 km/h 62 % 0 mm
18:00 -6.6 °C -11.6 °C 34073.3 hPa West 10.3 km/h 23.3 km/h 56 % 0 mm
18:15 -6.5 °C -11.8 °C 34073.3 hPa WSW 10.3 km/h 25.9 km/h 54 % 0 mm
18:30 -6.8 °C -12.1 °C 34073.3 hPa WNW 7.7 km/h 33.6 km/h 54 % 0 mm
18:45 -6.6 °C -11.9 °C 34073.3 hPa West 10.3 km/h 33.6 km/h 54 % 0 mm
19:00 -6.6 °C -11.8 °C 34073.3 hPa West 10.3 km/h 28.5 km/h 55 % 0 mm
19:15 -6.6 °C -11.9 °C 34073.3 hPa WNW 10.3 km/h 31.1 km/h 54 % 0 mm
19:30 -6.7 °C -12.2 °C 34073.3 hPa WNW 10.3 km/h 28.5 km/h 53 % 0 mm
19:45 -6.8 °C -12.2 °C 34073.3 hPa WSW 10.3 km/h 28.5 km/h 54 % 0 mm
20:00 -6.8 °C -11.9 °C 34073.3 hPa SW 7.7 km/h 25.9 km/h 56 % 0 mm
20:15 -6.9 °C -11.9 °C 34073.3 hPa West 7.7 km/h 31.1 km/h 56 % 0 mm
20:30 -7.3 °C -12.2 °C 34073.3 hPa West 5.1 km/h 23.3 km/h 57 % 0 mm
20:45 -7.4 °C -12 °C 34073.3 hPa NW 2.6 km/h 25.9 km/h 59 % 0 mm
21:00 -7.4 °C -12.1 °C 34073.3 hPa West 5.1 km/h 25.9 km/h 58 % 0 mm
21:15 -7.5 °C -11.9 °C 34073.3 hPa WSW 2.6 km/h 15.6 km/h 60 % 0 mm
21:30 -7.7 °C -12.2 °C 34073.3 hPa SSW 5.1 km/h 20.8 km/h 59 % 0 mm
21:45 -7.8 °C -12.6 °C 34073.3 hPa WSW 7.7 km/h 23.3 km/h 57 % 0 mm
22:00 -7.9 °C -12.4 °C 34073.3 hPa West 7.7 km/h 20.8 km/h 59 % 0 mm
22:15 -8.2 °C -12.4 °C 34086.9 hPa WSW 2.6 km/h 10.3 km/h 61 % 0 mm
22:30 -8.5 °C -12.4 °C 34086.9 hPa WSW 2.6 km/h 12.9 km/h 63 % 0 mm
22:45 -8.8 °C -12.4 °C 34086.9 hPa Calm   20.8 km/h 65 % 0 mm
23:00 -9 °C -12.4 °C 34086.9 hPa Calm   10.3 km/h 67 % 0 mm
23:15 -9.3 °C -12.6 °C 34086.9 hPa Calm   10.3 km/h 68 % 0 mm
23:30 -9.6 °C -12.7 °C 34086.9 hPa Calm   12.9 km/h 69 % 0 mm
23:45 -9.7 °C -13.1 °C 34097 hPa SW 2.6 km/h 18.2 km/h 67 % 0 mm
Esan sääasema
Terveisin Weather Underground - 2.75 mb

Alkuperäinen skripti  Jim McMurry - jmcmurry@mwt.net Sovitettu myös templatelle  Wim van der Kuil - Leuven-Template.eu

Laitteet joita käytämme:

Sääasema
Davis VP2

Sääasemaohjelma
Cumulus

Sääaseman tietokone
Asus EeePC

Palveluntarjoaja
Suncomet

Davis VP2

Cumulus

Asus EeePC

Suncomet